Time;durP1;ratioP1;P1;durP2;ratioP2;P2;SDS_P1;SDS_P2;PMS_P1;PMS_P2;Temp;Humidity;BMP_temperature;BMP_pressure;BME280_temperature;BME280_humidity;BME280_pressure;Samples;Min_cycle;Max_cycle;Signal;HPM_P1;HPM_P2
2024/01/29 00:02:06;;;;;;;31.40;19.92;;;9.60;80.60;;;;;;5073309;28;20162;-74
2024/01/29 00:04:31;;;;;;;28.40;20.00;;;9.60;80.60;;;;;;5073128;28;20405;-73
2024/01/29 00:06:57;;;;;;;29.05;20.33;;;9.50;80.80;;;;;;5073305;28;20051;-72
2024/01/29 00:09:23;;;;;;;26.50;18.80;;;9.40;80.80;;;;;;5073355;28;20037;-73
2024/01/29 00:11:49;;;;;;;26.88;18.95;;;9.40;80.80;;;;;;5073222;28;20034;-72
2024/01/29 00:14:15;;;;;;;28.58;18.80;;;9.30;80.80;;;;;;5073129;28;20477;-72
2024/01/29 00:16:40;;;;;;;27.75;17.80;;;9.30;80.70;;;;;;5054964;28;20124;-73
2024/01/29 00:19:06;;;;;;;26.77;18.08;;;9.30;80.30;;;;;;5072955;28;20032;-73
2024/01/29 00:21:32;;;;;;;27.10;18.60;;;9.30;79.90;;;;;;5073182;28;20090;-73
2024/01/29 00:24:00;;;;;;;25.80;18.13;;;9.30;79.60;;;;;;5072838;28;20115;-71
2024/01/29 00:26:26;;;;;;;28.08;19.13;;;9.30;79.50;;;;;;5072471;28;20102;-74
2024/01/29 00:28:52;;;;;;;21.35;16.00;;;9.30;79.30;;;;;;5054886;28;20850;-73
2024/01/29 00:31:18;;;;;;;21.92;16.65;;;9.20;78.60;;;;;;5072954;28;20041;-73
2024/01/29 00:33:46;;;;;;;22.50;16.70;;;9.20;78.30;;;;;;5072885;28;20131;-73
2024/01/29 00:36:11;;;;;;;21.50;14.82;;;9.20;78.10;;;;;;5072753;28;20045;-72
2024/01/29 00:38:37;;;;;;;22.73;15.27;;;9.10;77.50;;;;;;5072865;28;20057;-72
2024/01/29 00:41:03;;;;;;;21.52;15.07;;;9.10;77.80;;;;;;5072756;28;20120;-72
2024/01/29 00:43:29;;;;;;;19.67;14.07;;;9.10;78.00;;;;;;5072610;28;20160;-72
2024/01/29 00:45:55;;;;;;;19.70;13.48;;;9.00;77.30;;;;;;5072564;28;20062;-74
2024/01/29 00:48:22;;;;;;;18.52;13.52;;;9.00;76.80;;;;;;5072996;28;20039;-73
2024/01/29 00:50:48;;;;;;;20.45;13.85;;;8.90;77.20;;;;;;5072251;28;20040;-73
2024/01/29 00:53:15;;;;;;;18.25;13.07;;;9.00;76.90;;;;;;5072501;28;20410;-73
2024/01/29 00:55:43;;;;;;;19.17;12.73;;;9.00;76.60;;;;;;5072369;28;20032;-73
2024/01/29 00:58:10;;;;;;;18.88;12.40;;;9.00;76.10;;;;;;5072454;28;20038;-72
2024/01/29 01:00:35;;;;;;;18.20;12.75;;;9.00;76.00;;;;;;5072022;28;20060;-73
2024/01/29 01:03:01;;;;;;;24.23;13.45;;;9.00;75.80;;;;;;5087961;28;20465;-74
2024/01/29 01:05:27;;;;;;;19.30;12.93;;;9.00;75.90;;;;;;5092547;28;20363;-73
2024/01/29 01:07:53;;;;;;;18.20;13.18;;;9.10;75.70;;;;;;5092389;28;20047;-72
2024/01/29 01:10:19;;;;;;;17.75;12.90;;;9.00;75.00;;;;;;5092211;28;20048;-73
2024/01/29 01:12:44;;;;;;;18.45;11.45;;;9.00;75.40;;;;;;5092403;28;20035;-72
2024/01/29 01:15:10;;;;;;;17.65;12.07;;;8.90;74.70;;;;;;5092080;28;20477;-74
2024/01/29 01:17:36;;;;;;;19.20;12.48;;;8.90;75.00;;;;;;5092340;28;20035;-74
2024/01/29 01:20:03;;;;;;;16.40;11.50;;;8.80;74.50;;;;;;5092334;28;20398;-73
2024/01/29 01:22:28;;;;;;;17.25;11.80;;;8.80;75.20;;;;;;5092161;28;20095;-73
2024/01/29 01:24:54;;;;;;;16.77;11.82;;;8.80;75.00;;;;;;5091761;28;20058;-73
2024/01/29 01:27:20;;;;;;;17.50;11.48;;;8.70;74.50;;;;;;5092452;28;20032;-73
2024/01/29 01:29:45;;;;;;;15.40;11.20;;;8.70;74.70;;;;;;5092143;28;20047;-71
2024/01/29 01:32:11;;;;;;;17.33;11.15;;;8.60;74.10;;;;;;5092341;28;20031;-72
2024/01/29 01:34:37;;;;;;;14.52;10.73;;;8.50;74.00;;;;;;5092186;28;20093;-72
2024/01/29 01:37:03;;;;;;;15.52;10.85;;;8.50;73.90;;;;;;5092253;28;20028;-72
2024/01/29 01:39:29;;;;;;;14.50;9.85;;;8.50;74.50;;;;;;5092133;28;20050;-73
2024/01/29 01:41:55;;;;;;;14.85;10.50;;;8.50;74.20;;;;;;5092427;28;20036;-73
2024/01/29 01:44:20;;;;;;;13.02;9.77;;;8.50;73.70;;;;;;5092308;28;20032;-73
2024/01/29 01:46:47;;;;;;;16.00;10.18;;;8.40;73.80;;;;;;5091924;28;20028;-73
2024/01/29 01:49:14;;;;;;;14.75;9.38;;;8.30;73.20;;;;;;5091674;28;20100;-73
2024/01/29 01:51:40;;;;;;;13.80;9.43;;;8.30;73.10;;;;;;5092174;28;20052;-70
2024/01/29 01:54:08;;;;;;;14.25;9.63;;;8.20;73.30;;;;;;5092243;28;20087;-73
2024/01/29 01:56:35;;;;;;;13.40;9.43;;;8.10;73.10;;;;;;5092245;28;20033;-73
2024/01/29 01:59:04;;;;;;;13.10;8.80;;;8.20;73.00;;;;;;5091806;28;20032;-72
2024/01/29 02:01:31;;;;;;;11.95;8.95;;;8.20;72.90;;;;;;5092612;28;20036;-72
2024/01/29 02:03:57;;;;;;;12.20;8.57;;;8.10;72.90;;;;;;5095848;28;20044;-71
2024/01/29 02:06:24;;;;;;;12.77;8.48;;;8.10;73.00;;;;;;5095675;28;20035;-72
2024/01/29 02:08:50;;;;;;;14.18;8.88;;;8.20;72.90;;;;;;5077213;28;20036;-73
2024/01/29 02:11:16;;;;;;;14.75;9.10;;;8.20;72.30;;;;;;5096081;28;20082;-72
2024/01/29 02:13:42;;;;;;;13.43;8.75;;;8.10;72.10;;;;;;5095781;28;20424;-72
2024/01/29 02:16:07;;;;;;;11.35;7.85;;;8.10;72.40;;;;;;5095679;28;20451;-72
2024/01/29 02:18:33;;;;;;;13.07;8.57;;;8.00;71.50;;;;;;5095832;28;20501;-73
2024/01/29 02:20:59;;;;;;;11.90;7.97;;;8.00;72.30;;;;;;5095309;28;20040;-72
2024/01/29 02:23:25;;;;;;;11.90;8.63;;;8.00;72.00;;;;;;5095526;28;20039;-72
2024/01/29 02:25:51;;;;;;;13.00;8.13;;;8.00;71.70;;;;;;5095149;28;20056;-73
2024/01/29 02:28:17;;;;;;;11.32;7.78;;;8.00;71.80;;;;;;5095345;28;20035;-72
2024/01/29 02:30:43;;;;;;;14.75;8.10;;;8.00;71.80;;;;;;5095438;28;20543;-72
2024/01/29 02:33:09;;;;;;;11.07;6.90;;;8.00;71.90;;;;;;5095575;28;20512;-72
2024/01/29 02:35:35;;;;;;;11.00;7.40;;;8.00;71.60;;;;;;5095268;28;20048;-72
2024/01/29 02:38:00;;;;;;;12.95;8.70;;;8.00;71.90;;;;;;5095151;28;20550;-72
2024/01/29 02:40:26;;;;;;;11.80;7.80;;;8.00;71.80;;;;;;5095411;28;20028;-72
2024/01/29 02:42:52;;;;;;;13.40;8.38;;;8.00;71.70;;;;;;5076927;28;20401;-73
2024/01/29 02:45:18;;;;;;;11.45;7.80;;;8.00;71.80;;;;;;5095114;28;20068;-72
2024/01/29 02:47:44;;;;;;;13.23;7.85;;;8.00;71.70;;;;;;5095195;28;20107;-72
2024/01/29 02:50:09;;;;;;;12.73;7.53;;;8.00;71.60;;;;;;5094933;28;20044;-73
2024/01/29 02:52:35;;;;;;;12.30;7.50;;;8.00;71.50;;;;;;5094822;28;20025;-72
2024/01/29 02:55:01;;;;;;;11.15;7.32;;;8.00;71.50;;;;;;5094609;28;20390;-73
2024/01/29 02:57:27;;;;;;;13.23;7.82;;;8.00;71.40;;;;;;5076554;28;20040;-72
2024/01/29 02:59:53;;;;;;;11.75;7.97;;;8.00;71.30;;;;;;5094755;28;20035;-73
2024/01/29 03:02:19;;;;;;;11.43;7.50;;;8.00;71.50;;;;;;5094887;28;20437;-73
2024/01/29 03:04:45;;;;;;;10.82;7.40;;;7.90;70.70;;;;;;5094749;28;20672;-73
2024/01/29 03:07:10;;;;;;;11.88;8.35;;;7.80;71.20;;;;;;5094138;28;20065;-74
2024/01/29 03:09:36;;;;;;;11.48;7.80;;;7.80;71.20;;;;;;5094482;28;20047;-73
2024/01/29 03:12:02;;;;;;;12.07;8.32;;;7.80;71.10;;;;;;5094583;28;20039;-72
2024/01/29 03:14:28;;;;;;;11.35;7.45;;;7.70;71.20;;;;;;5094652;28;20520;-73
2024/01/29 03:16:54;;;;;;;12.85;7.82;;;7.70;71.30;;;;;;5094056;28;20032;-72
2024/01/29 03:19:20;;;;;;;11.68;8.48;;;7.70;71.20;;;;;;5094129;28;20497;-72
2024/01/29 03:21:46;;;;;;;11.80;7.57;;;7.80;71.20;;;;;;5094371;28;20028;-73
2024/01/29 03:24:12;;;;;;;10.48;7.80;;;7.70;70.90;;;;;;5094358;28;20394;-72
2024/01/29 03:26:38;;;;;;;13.93;7.38;;;7.70;70.90;;;;;;5094277;28;20143;-73
2024/01/29 03:29:04;;;;;;;11.02;7.60;;;7.70;70.90;;;;;;5093838;28;20612;-73
2024/01/29 03:31:30;;;;;;;10.38;7.03;;;7.80;70.90;;;;;;5094269;28;20103;-71
2024/01/29 03:33:55;;;;;;;12.85;7.72;;;7.80;70.80;;;;;;5093995;28;20062;-73
2024/01/29 03:36:21;;;;;;;10.82;6.95;;;7.80;70.60;;;;;;5094228;28;20362;-73
2024/01/29 03:38:47;;;;;;;10.88;7.10;;;7.70;69.90;;;;;;5094056;28;20576;-71
2024/01/29 03:41:13;;;;;;;12.02;7.32;;;7.70;70.00;;;;;;5093892;28;20122;-72
2024/01/29 03:43:38;;;;;;;9.85;6.53;;;7.70;70.40;;;;;;5093665;28;20034;-72
2024/01/29 03:46:04;;;;;;;11.27;7.07;;;7.70;70.20;;;;;;5093774;28;20388;-72
2024/01/29 03:48:30;;;;;;;10.85;6.75;;;7.70;69.90;;;;;;5093632;28;20040;-73
2024/01/29 03:50:55;;;;;;;11.70;6.57;;;7.70;70.20;;;;;;5093598;28;20051;-72
2024/01/29 03:53:21;;;;;;;10.18;7.07;;;7.70;69.70;;;;;;5093525;28;20439;-73
2024/01/29 03:55:47;;;;;;;13.30;6.65;;;7.70;69.80;;;;;;5093655;28;20032;-73
2024/01/29 03:58:13;;;;;;;12.40;7.13;;;7.70;69.50;;;;;;5093620;28;20032;-73
2024/01/29 04:00:39;;;;;;;9.98;6.63;;;7.80;69.50;;;;;;5093579;28;20032;-72
2024/01/29 04:03:06;;;;;;;12.10;6.70;;;7.80;69.60;;;;;;5093586;28;20060;-71
2024/01/29 04:05:32;;;;;;;10.07;6.63;;;7.70;69.20;;;;;;5075198;28;20169;-73
2024/01/29 04:07:59;;;;;;;10.60;6.43;;;7.70;69.20;;;;;;5093421;28;20545;-73
2024/01/29 04:10:24;;;;;;;13.10;7.05;;;7.70;69.30;;;;;;5093383;28;20448;-72
2024/01/29 04:12:50;;;;;;;10.82;6.82;;;7.70;69.20;;;;;;5093386;28;20028;-73
2024/01/29 04:15:16;;;;;;;11.43;6.80;;;7.70;69.50;;;;;;5093525;28;20404;-72
2024/01/29 04:17:41;;;;;;;10.50;7.10;;;7.80;69.40;;;;;;5093105;28;20086;-73
2024/01/29 04:20:08;;;;;;;11.38;6.43;;;7.70;69.10;;;;;;5093251;28;20397;-65
2024/01/29 04:22:34;;;;;;;10.60;7.35;;;7.70;69.40;;;;;;5093322;28;20119;-71
2024/01/29 04:25:02;;;;;;;10.55;6.90;;;7.60;69.10;;;;;;5092515;28;20047;-72
2024/01/29 04:27:28;;;;;;;10.93;6.35;;;7.70;69.30;;;;;;5093250;28;20028;-73
2024/01/29 04:29:54;;;;;;;11.15;6.43;;;7.70;69.10;;;;;;5092931;28;20040;-73
2024/01/29 04:32:19;;;;;;;16.77;8.73;;;7.70;69.40;;;;;;5092758;28;20036;-73
2024/01/29 04:34:45;;;;;;;20.88;12.23;;;7.70;69.10;;;;;;5093071;28;20512;-72
2024/01/29 04:37:11;;;;;;;18.65;9.52;;;7.70;68.90;;;;;;5093121;28;20039;-73
2024/01/29 04:39:38;;;;;;;10.43;6.45;;;7.70;69.00;;;;;;5093124;28;20040;-73
2024/01/29 04:42:04;;;;;;;8.55;5.70;;;7.70;68.60;;;;;;5092879;28;20031;-73
2024/01/29 04:44:30;;;;;;;10.30;6.68;;;7.70;68.70;;;;;;5092848;28;20097;-71
2024/01/29 04:46:57;;;;;;;10.57;6.50;;;7.70;68.80;;;;;;5092595;28;20494;-72
2024/01/29 04:49:23;;;;;;;9.63;6.05;;;7.60;68.10;;;;;;5092739;28;20051;-72
2024/01/29 04:51:49;;;;;;;13.07;6.75;;;7.50;67.90;;;;;;5092522;28;20016;-73
2024/01/29 04:54:14;;;;;;;8.23;5.55;;;7.50;68.00;;;;;;5092726;28;20409;-73
2024/01/29 04:56:40;;;;;;;10.73;5.82;;;7.50;68.30;;;;;;5092488;28;20016;-73
2024/01/29 04:59:06;;;;;;;9.73;6.20;;;7.40;67.90;;;;;;5092634;28;20467;-72
2024/01/29 05:01:31;;;;;;;13.27;5.95;;;7.40;67.50;;;;;;5092586;28;20028;-72
2024/01/29 05:03:57;;;;;;;10.07;5.75;;;7.30;68.00;;;;;;5092940;28;20400;-72
2024/01/29 05:06:23;;;;;;;9.02;5.53;;;7.30;68.10;;;;;;5092625;28;20162;-71
2024/01/29 05:08:49;;;;;;;11.85;5.93;;;7.30;68.00;;;;;;5092380;28;20516;-72
2024/01/29 05:11:14;;;;;;;13.50;8.68;;;7.30;67.70;;;;;;5092897;28;20047;-72
2024/01/29 05:13:40;;;;;;;10.15;6.22;;;7.20;67.40;;;;;;5092704;28;20058;-73
2024/01/29 05:16:06;;;;;;;10.77;6.07;;;7.30;68.10;;;;;;5092533;28;20117;-73
2024/01/29 05:18:33;;;;;;;9.10;5.03;;;7.30;67.90;;;;;;5092335;28;20036;-72
2024/01/29 05:20:59;;;;;;;7.47;5.43;;;7.30;67.50;;;;;;5092549;28;20532;-72
2024/01/29 05:23:25;;;;;;;9.52;5.47;;;7.30;67.20;;;;;;5092505;28;20120;-73
2024/01/29 05:25:50;;;;;;;10.57;5.80;;;7.30;67.50;;;;;;5092115;28;20128;-71
2024/01/29 05:28:16;;;;;;;11.98;6.43;;;7.30;67.80;;;;;;5092303;28;20035;-72
2024/01/29 05:30:42;;;;;;;9.55;5.50;;;7.30;67.90;;;;;;5092147;28;20044;-73
2024/01/29 05:33:07;;;;;;;9.10;5.53;;;7.30;67.70;;;;;;5092617;28;20024;-73
2024/01/29 05:35:33;;;;;;;11.30;6.65;;;7.30;67.90;;;;;;5092329;28;20110;-74
2024/01/29 05:37:59;;;;;;;10.35;6.35;;;7.30;67.60;;;;;;5077393;28;20046;-73
2024/01/29 05:40:24;;;;;;;11.32;5.68;;;7.40;67.90;;;;;;5096817;28;20056;-73
2024/01/29 05:42:53;;;;;;;10.32;6.00;;;7.40;67.60;;;;;;5096026;28;20082;-73
2024/01/29 05:45:20;;;;;;;9.63;5.32;;;7.30;68.00;;;;;;5095822;28;20032;-72
2024/01/29 05:47:46;;;;;;;9.52;6.10;;;7.30;67.10;;;;;;5095949;28;20032;-73
2024/01/29 05:50:12;;;;;;;11.00;5.65;;;7.20;67.20;;;;;;5096226;28;20123;-73
2024/01/29 05:52:38;;;;;;;14.02;6.55;;;7.10;67.20;;;;;;5096119;28;20028;-73
2024/01/29 05:55:04;;;;;;;8.80;5.82;;;7.00;67.60;;;;;;5095839;28;20039;-72
2024/01/29 05:57:30;;;;;;;9.18;5.47;;;7.00;68.20;;;;;;5096071;28;20071;-71
2024/01/29 05:59:56;;;;;;;13.95;5.95;;;7.00;68.00;;;;;;5095900;28;20063;-73
2024/01/29 06:02:21;;;;;;;13.32;6.78;;;7.00;67.70;;;;;;5096252;28;20083;-74
2024/01/29 06:04:47;;;;;;;11.15;7.20;;;7.00;67.90;;;;;;5096168;28;20047;-73
2024/01/29 06:07:13;;;;;;;10.40;6.18;;;7.00;67.70;;;;;;5095560;28;20082;-72
2024/01/29 06:09:39;;;;;;;11.85;6.50;;;6.90;67.40;;;;;;5095885;28;20086;-73
2024/01/29 06:12:04;;;;;;;11.07;6.50;;;6.90;67.70;;;;;;5095969;28;20028;-71
2024/01/29 06:14:31;;;;;;;10.65;5.97;;;6.80;67.90;;;;;;5094594;28;20039;-73
2024/01/29 06:16:57;;;;;;;10.85;6.60;;;6.80;67.70;;;;;;5095828;28;20039;-74
2024/01/29 06:19:24;;;;;;;10.65;6.75;;;6.80;68.10;;;;;;5095491;28;20110;-72
2024/01/29 06:21:50;;;;;;;11.95;6.05;;;6.80;68.10;;;;;;5095708;28;20036;-73
2024/01/29 06:24:16;;;;;;;13.77;6.47;;;6.80;68.40;;;;;;5095801;28;20032;-73
2024/01/29 06:26:42;;;;;;;10.63;6.32;;;6.80;68.50;;;;;;5095271;28;20072;-72
2024/01/29 06:29:09;;;;;;;11.05;6.32;;;6.80;68.30;;;;;;5095340;28;20592;-72
2024/01/29 06:31:41;;;;;;;12.07;6.70;;;6.80;68.30;;;;;;5095383;28;20051;-72
2024/01/29 06:34:07;;;;;;;12.68;6.60;;;6.70;68.50;;;;;;5095252;28;20519;-73
2024/01/29 06:36:33;;;;;;;10.77;6.28;;;6.70;69.20;;;;;;5093853;28;20040;-72
2024/01/29 06:38:59;;;;;;;10.85;6.82;;;6.80;68.80;;;;;;5094808;28;20029;-73
2024/01/29 06:41:26;;;;;;;11.73;6.45;;;6.80;68.60;;;;;;5094700;28;20494;-73
2024/01/29 06:43:52;;;;;;;11.05;6.18;;;6.80;68.10;;;;;;5094787;28;20024;-74
2024/01/29 06:46:18;;;;;;;10.18;6.50;;;6.80;68.30;;;;;;5094572;28;20024;-72
2024/01/29 06:48:44;;;;;;;13.60;7.22;;;6.80;68.50;;;;;;5094391;28;20032;-71
2024/01/29 06:51:11;;;;;;;11.95;7.53;;;6.90;68.60;;;;;;5094976;28;20439;-73
2024/01/29 06:53:37;;;;;;;9.77;6.07;;;7.10;68.50;;;;;;5094724;28;20032;-72
2024/01/29 06:56:04;;;;;;;10.05;6.45;;;7.10;68.10;;;;;;5093470;28;20042;-72
2024/01/29 06:58:37;;;;;;;13.93;6.03;;;7.20;67.90;;;;;;5095059;28;20036;-71
2024/01/29 07:01:05;;;;;;;9.13;5.45;;;7.40;67.70;;;;;;5094549;28;20032;-71
2024/01/29 07:03:32;;;;;;;11.13;5.30;;;8.10;66.70;;;;;;5093231;28;20040;-71
2024/01/29 07:05:58;;;;;;;12.38;5.68;;;8.70;64.70;;;;;;5094137;28;20390;-70
2024/01/29 07:08:27;;;;;;;11.55;6.10;;;9.30;63.90;;;;;;5094253;28;20105;-70
2024/01/29 07:10:52;;;;;;;11.95;6.65;;;9.60;63.30;;;;;;5094364;28;20036;-71
2024/01/29 07:13:18;;;;;;;10.80;5.95;;;10.20;61.40;;;;;;5094686;28;20381;-72
2024/01/29 07:15:44;;;;;;;10.25;5.47;;;11.00;60.10;;;;;;5094696;28;20070;-71
2024/01/29 07:18:10;;;;;;;9.93;5.20;;;11.50;58.30;;;;;;5094384;28;20032;-71
2024/01/29 07:20:41;;;;;;;11.80;5.70;;;12.10;57.30;;;;;;5094235;28;20558;-69
2024/01/29 07:23:07;;;;;;;12.43;5.18;;;12.50;56.70;;;;;;5094144;28;20089;-72
2024/01/29 07:25:34;;;;;;;11.27;5.68;;;12.80;55.50;;;;;;5093975;28;20545;-70
2024/01/29 07:28:04;;;;;;;8.77;5.18;;;13.00;54.60;;;;;;5093978;28;20112;-72
2024/01/29 07:30:30;;;;;;;9.40;5.38;;;13.20;54.20;;;;;;5092666;28;20120;-71
2024/01/29 07:33:00;;;;;;;10.55;5.47;;;13.40;53.60;;;;;;5093752;28;20082;-70
2024/01/29 07:35:26;;;;;;;8.20;5.07;;;13.40;53.40;;;;;;5093745;28;20047;-71
2024/01/29 07:37:52;;;;;;;8.38;5.18;;;13.40;52.30;;;;;;5093771;28;20451;-71
2024/01/29 07:40:19;;;;;;;11.85;5.80;;;13.20;52.10;;;;;;5093434;28;20556;-71
2024/01/29 07:42:46;;;;;;;12.82;5.53;;;13.30;52.10;;;;;;5093557;28;20071;-70
2024/01/29 07:45:12;;;;;;;9.48;5.07;;;13.50;51.90;;;;;;5093714;28;20082;-71
2024/01/29 07:47:38;;;;;;;10.57;5.30;;;13.80;51.50;;;;;;5092418;28;20039;-73
2024/01/29 07:50:04;;;;;;;10.98;5.30;;;13.10;50.80;;;;;;5093337;28;20036;-70
2024/01/29 07:52:30;;;;;;;12.68;5.45;;;12.00;51.90;;;;;;5093350;28;20097;-71
2024/01/29 07:54:55;;;;;;;9.75;6.00;;;11.10;53.40;;;;;;5093328;28;20374;-70
2024/01/29 07:57:21;;;;;;;11.80;5.28;;;10.60;54.40;;;;;;5093293;28;20028;-71
2024/01/29 07:59:47;;;;;;;10.77;5.82;;;10.10;55.50;;;;;;5092292;28;20126;-72
2024/01/29 08:02:12;;;;;;;10.27;5.40;;;9.80;56.60;;;;;;5093229;28;20153;-73
2024/01/29 08:04:38;;;;;;;9.30;5.43;;;9.50;57.20;;;;;;5093377;28;20032;-72
2024/01/29 08:07:04;;;;;;;8.85;5.70;;;9.20;57.50;;;;;;5091862;28;20032;-72
2024/01/29 08:09:30;;;;;;;11.35;6.72;;;9.10;58.00;;;;;;5092655;28;20139;-72
2024/01/29 08:11:56;;;;;;;16.02;7.80;;;8.90;58.20;;;;;;5074408;28;20044;-70
2024/01/29 08:14:22;;;;;;;12.13;7.20;;;8.90;59.30;;;;;;5092081;28;20075;-70
2024/01/29 08:16:48;;;;;;;14.73;7.35;;;8.90;58.60;;;;;;5091768;28;20059;-73
2024/01/29 08:19:14;;;;;;;13.93;7.13;;;8.80;58.50;;;;;;5092457;28;20051;-70
2024/01/29 08:21:39;;;;;;;11.80;7.20;;;8.80;58.40;;;;;;5092443;28;20028;-71
2024/01/29 08:24:05;;;;;;;13.73;6.47;;;8.70;58.50;;;;;;5091775;28;20074;-73
2024/01/29 08:26:31;;;;;;;15.27;7.38;;;8.60;58.60;;;;;;5092259;28;20052;-72
2024/01/29 08:28:58;;;;;;;10.98;5.82;;;8.60;58.90;;;;;;5092054;28;20032;-71
2024/01/29 08:31:24;;;;;;;12.10;6.82;;;8.60;59.00;;;;;;5092452;28;20074;-71
2024/01/29 08:33:50;;;;;;;15.13;6.25;;;8.60;59.10;;;;;;5092471;28;20060;-70
2024/01/29 08:36:16;;;;;;;8.70;5.85;;;8.60;58.90;;;;;;5091717;28;20032;-71
2024/01/29 08:38:42;;;;;;;9.10;5.10;;;8.60;58.90;;;;;;5073894;28;20473;-70
2024/01/29 08:41:08;;;;;;;12.20;6.53;;;8.60;59.10;;;;;;5073945;28;20030;-71
2024/01/29 08:43:34;;;;;;;10.95;5.80;;;8.70;59.10;;;;;;5091775;28;20038;-71
2024/01/29 08:46:00;;;;;;;12.40;5.93;;;8.70;59.10;;;;;;5092214;28;20111;-71
2024/01/29 08:48:25;;;;;;;9.27;5.53;;;8.80;59.10;;;;;;5092284;28;20032;-72
2024/01/29 08:50:51;;;;;;;10.68;5.25;;;8.90;59.40;;;;;;5091516;28;20036;-70
2024/01/29 08:53:17;;;;;;;9.77;5.68;;;8.90;59.30;;;;;;5091688;28;20016;-71
2024/01/29 08:55:43;;;;;;;8.82;5.88;;;9.00;59.50;;;;;;5073349;28;20043;-71
2024/01/29 08:58:08;;;;;;;12.13;5.50;;;9.00;59.10;;;;;;5091739;28;20066;-71
2024/01/29 09:00:34;;;;;;;9.45;5.93;;;9.00;59.00;;;;;;5091562;28;20123;-72
2024/01/29 09:03:00;;;;;;;9.93;5.85;;;9.00;59.20;;;;;;5091998;28;20042;-72
2024/01/29 09:05:25;;;;;;;9.57;5.70;;;9.10;59.20;;;;;;5074093;28;20324;-71
2024/01/29 09:07:51;;;;;;;10.95;6.32;;;9.20;59.40;;;;;;5074246;28;20036;-71
2024/01/29 09:10:17;;;;;;;18.27;6.50;;;9.20;59.20;;;;;;5091635;28;20145;-71
2024/01/29 09:12:44;;;;;;;12.30;7.00;;;9.30;59.10;;;;;;5092259;28;20036;-71
2024/01/29 09:15:11;;;;;;;9.77;6.03;;;9.40;59.20;;;;;;5092048;28;20039;-71
2024/01/29 09:17:37;;;;;;;11.13;6.30;;;9.50;59.40;;;;;;5091302;28;20390;-71
2024/01/29 09:20:07;;;;;;;13.63;7.05;;;9.60;59.10;;;;;;5091845;28;20062;-70
2024/01/29 09:22:33;;;;;;;12.95;7.75;;;9.70;59.20;;;;;;5073562;28;20046;-71
2024/01/29 09:24:59;;;;;;;16.63;7.70;;;9.80;59.30;;;;;;5073470;28;20479;-71
2024/01/29 09:27:25;;;;;;;14.05;7.60;;;9.80;58.90;;;;;;5092528;28;20486;-71
2024/01/29 09:29:50;;;;;;;11.43;6.97;;;9.90;59.10;;;;;;5092139;28;20059;-71
2024/01/29 09:32:16;;;;;;;12.05;7.05;;;10.00;57.60;;;;;;5055269;28;20082;-70
2024/01/29 09:34:42;;;;;;;15.48;7.65;;;10.10;58.00;;;;;;5071789;28;20375;-71
2024/01/29 09:37:07;;;;;;;27.60;8.75;;;10.10;58.00;;;;;;5071955;28;20017;-72
2024/01/29 09:39:33;;;;;;;37.22;10.02;;;10.30;58.10;;;;;;5071739;28;20490;-73
2024/01/29 09:42:04;;;;;;;16.90;8.15;;;10.40;57.90;;;;;;5074149;28;20107;-72
2024/01/29 09:44:39;;;;;;;47.67;10.23;;;10.50;58.10;;;;;;5073445;28;20429;-71
2024/01/29 09:47:06;;;;;;;14.40;7.65;;;10.60;57.70;;;;;;5074000;28;20032;-71
2024/01/29 09:49:34;;;;;;;18.50;7.65;;;10.70;57.70;;;;;;5091658;28;20133;-71
2024/01/29 09:52:05;;;;;;;12.27;7.20;;;10.70;57.40;;;;;;5089649;28;20036;-70
2024/01/29 09:54:33;;;;;;;19.55;7.90;;;10.80;58.10;;;;;;5073393;28;20090;-72
2024/01/29 09:56:58;;;;;;;16.45;8.02;;;10.90;57.30;;;;;;5091154;28;20206;-73
2024/01/29 09:59:24;;;;;;;15.73;8.07;;;11.00;57.50;;;;;;5091618;28;20072;-72
2024/01/29 10:01:50;;;;;;;16.83;8.48;;;11.00;57.40;;;;;;5091644;28;20032;-73
2024/01/29 10:04:16;;;;;;;17.95;9.15;;;11.10;57.40;;;;;;5091871;28;20081;-72
2024/01/29 10:06:42;;;;;;;17.13;8.57;;;11.20;57.20;;;;;;5091743;28;20107;-75
2024/01/29 10:09:14;;;;;;;17.55;9.40;;;11.30;57.10;;;;;;5091882;28;20474;-76
2024/01/29 10:11:41;;;;;;;19.30;9.50;;;11.40;58.10;;;;;;5091833;28;20032;-74
2024/01/29 10:14:08;;;;;;;14.63;9.38;;;11.50;57.10;;;;;;5091105;28;20119;-72
2024/01/29 10:16:33;;;;;;;18.70;9.43;;;11.60;57.20;;;;;;5091565;28;20047;-76
2024/01/29 10:19:03;;;;;;;18.13;10.52;;;11.60;57.00;;;;;;5092084;28;20036;-76
2024/01/29 10:21:37;;;;;;;14.82;8.57;;;11.80;57.10;;;;;;5073690;28;20036;-73
2024/01/29 10:24:03;;;;;;;18.05;8.52;;;11.90;57.10;;;;;;5076535;28;20028;-72
2024/01/29 10:26:28;;;;;;;12.25;8.00;;;12.00;57.40;;;;;;5094663;28;20044;-72
2024/01/29 10:29:05;;;;;;;13.07;8.50;;;12.10;57.20;;;;;;5094799;28;20103;-71
2024/01/29 10:31:31;;;;;;;17.73;8.45;;;12.10;57.60;;;;;;5095135;28;20110;-72
2024/01/29 10:34:01;;;;;;;16.00;9.40;;;12.30;57.30;;;;;;5095271;28;20031;-71
2024/01/29 10:36:27;;;;;;;15.00;9.25;;;12.30;57.10;;;;;;5076943;28;20520;-71
2024/01/29 10:38:54;;;;;;;17.15;8.65;;;12.40;57.20;;;;;;5094571;28;20036;-72
2024/01/29 10:41:21;;;;;;;14.38;7.75;;;12.50;57.00;;;;;;5094809;28;20126;-73
2024/01/29 10:43:54;;;;;;;14.18;8.85;;;12.60;57.30;;;;;;5086196;28;20046;-74
2024/01/29 10:46:20;;;;;;;14.38;7.85;;;12.70;57.30;;;;;;5076880;28;20450;-75
2024/01/29 10:48:47;;;;;;;16.13;8.65;;;12.80;57.40;;;;;;5095024;28;20028;-74
2024/01/29 10:51:14;;;;;;;17.58;9.32;;;12.80;57.30;;;;;;5076707;28;20043;-74
2024/01/29 10:53:44;;;;;;;18.00;9.13;;;12.90;57.30;;;;;;5095112;28;20040;-74
2024/01/29 10:56:11;;;;;;;24.88;10.68;;;12.90;57.10;;;;;;5094755;28;20126;-72
2024/01/29 10:58:37;;;;;;;16.92;9.68;;;12.90;57.20;;;;;;5094401;28;20094;-72
2024/01/29 11:01:05;;;;;;;21.90;10.05;;;13.00;57.40;;;;;;5094605;28;20032;-73
2024/01/29 11:03:31;;;;;;;16.42;9.95;;;13.10;57.50;;;;;;5094978;28;20593;-73
2024/01/29 11:06:08;;;;;;;22.15;10.55;;;13.10;57.60;;;;;;5094425;28;20516;-77
2024/01/29 11:08:39;;;;;;;18.08;11.40;;;13.20;57.60;;;;;;5094471;28;20039;-72
2024/01/29 11:11:06;;;;;;;18.45;10.68;;;13.30;57.70;;;;;;5076341;28;20528;-73
2024/01/29 11:13:33;;;;;;;24.17;10.60;;;13.40;57.80;;;;;;5076769;28;20099;-72
2024/01/29 11:15:59;;;;;;;17.65;10.77;;;13.40;57.80;;;;;;5094911;28;20060;-72
2024/01/29 11:18:24;;;;;;;19.15;10.80;;;13.50;57.90;;;;;;5094667;28;20071;-72
2024/01/29 11:20:51;;;;;;;18.52;10.98;;;13.60;57.90;;;;;;5094304;28;20028;-71
2024/01/29 11:23:21;;;;;;;17.70;11.27;;;13.70;57.90;;;;;;5094403;28;20036;-71
2024/01/29 11:25:49;;;;;;;18.70;10.43;;;13.80;58.10;;;;;;5075686;28;20052;-72
2024/01/29 11:28:15;;;;;;;17.83;9.75;;;13.90;58.10;;;;;;5094167;28;20036;-71
2024/01/29 11:30:48;;;;;;;16.02;9.48;;;14.00;58.10;;;;;;5093956;28;20123;-72
2024/01/29 11:33:16;;;;;;;15.85;9.38;;;14.10;58.20;;;;;;5093973;28;20119;-71
2024/01/29 11:35:42;;;;;;;27.60;9.77;;;14.20;58.40;;;;;;5094304;28;20153;-72
2024/01/29 11:38:13;;;;;;;15.50;9.80;;;14.20;58.70;;;;;;5093594;28;20119;-73
2024/01/29 11:40:43;;;;;;;15.20;9.80;;;14.30;58.90;;;;;;5094099;28;20024;-73
2024/01/29 11:43:17;;;;;;;47.50;10.05;;;14.40;59.00;;;;;;5093905;28;20131;-72
2024/01/29 11:45:46;;;;;;;;;;;14.40;59.40;;;;;;5094181;28;20024;-75
2024/01/29 11:48:13;;;;;;;14.13;9.20;;;14.50;59.50;;;;;;5093473;28;19904;-73
2024/01/29 11:50:40;;;;;;;16.10;9.50;;;14.60;59.90;;;;;;5093371;28;20059;-74
2024/01/29 11:53:09;;;;;;;15.25;8.50;;;14.60;60.20;;;;;;5093729;28;20503;-72
2024/01/29 11:55:35;;;;;;;15.20;9.65;;;14.60;60.50;;;;;;5093680;28;20490;-73
2024/01/29 11:58:01;;;;;;;26.63;9.85;;;14.70;60.90;;;;;;5075739;28;20085;-73
2024/01/29 12:00:28;;;;;;;13.60;9.40;;;14.80;60.70;;;;;;5094089;28;20036;-75
2024/01/29 12:02:54;;;;;;;14.80;8.95;;;14.80;60.70;;;;;;5093996;28;20036;-73
2024/01/29 12:05:19;;;;;;;13.35;9.57;;;14.90;60.80;;;;;;5093518;28;20551;-73
2024/01/29 12:07:47;;;;;;;15.00;8.55;;;15.00;60.90;;;;;;5093674;28;20039;-74
2024/01/29 12:10:13;;;;;;;21.73;10.63;;;15.00;61.20;;;;;;5093376;28;20123;-75
2024/01/29 12:12:38;;;;;;;14.73;9.30;;;15.10;62.20;;;;;;5093191;28;20035;-71
2024/01/29 12:15:06;;;;;;;14.38;9.60;;;15.20;61.60;;;;;;5074704;28;20497;-72
2024/01/29 12:17:32;;;;;;;18.30;10.18;;;15.30;61.60;;;;;;5093260;28;20438;-77
2024/01/29 12:19:59;;;;;;;19.05;9.95;;;15.40;61.30;;;;;;5074951;28;20367;-74
2024/01/29 12:22:24;;;;;;;14.25;9.73;;;15.40;61.20;;;;;;5093080;28;20048;-76
2024/01/29 12:24:50;;;;;;;15.10;9.73;;;15.40;61.10;;;;;;5091040;22;20439;-72
2024/01/29 12:27:17;;;;;;;16.98;8.93;;;15.40;61.20;;;;;;5032994;28;20386;-76
2024/01/29 12:29:45;;;;;;;15.23;9.75;;;15.50;61.20;;;;;;5032911;28;20145;-71
2024/01/29 12:32:11;;;;;;;18.10;10.18;;;15.50;61.20;;;;;;5032912;28;20107;-72
2024/01/29 12:34:48;;;;;;;17.85;9.85;;;15.60;61.30;;;;;;5025491;28;20049;-74
2024/01/29 12:37:21;;;;;;;14.43;9.70;;;15.60;61.40;;;;;;5033238;28;20033;-75
2024/01/29 12:40:14;;;;;;;18.85;10.48;;;15.60;61.90;;;;;;5032053;28;20037;-77